LEZL

Sevilla Airport

Sevilla, Spain
TAF LEZL 200800Z 2009/2109 34012KT CAVOK TX17/2015Z TN04/2108Z BECMG 2021/2023 VRB03KT
Issued Valid From Valid To
Jan-20 @ 08:00 UTC
(3 hours ago)
Jan-20 @ 09:00 UTC
(2 hours ago)
Jan-21 @ 09:00 UTC
(in 22 hours)
Jan-20 @ 09:00 to Jan-20 @ 21:00
TAF LEZL 200800Z 2009/2109 34012KT CAVOK TX17/2015Z TN04/2108Z
Wind Visibility Clouds
340° at 12 knots 10,000+ meters
  • No significant clouds
Becoming Jan-20 @ 21:00 to Jan-21 @ 09:00
BECMG 2021/2023 VRB03KT
Wind Visibility Clouds
Variable at 3 knots 10,000+ meters
  • No significant clouds
TAF LEZL 200800Z 2009/2109 34012KT CAVOK TX17/2015Z TN04/2108Z BECMG 2021/2023 VRB03KT
Issued Jan-20 @ 08:00 UTC
(3 hours ago)
Valid From Jan-20 @ 09:00 UTC
(2 hours ago)
Valid To Jan-21 @ 09:00 UTC
(in 22 hours)
Jan-20 @ 09:00 - Jan-20 @ 21:00
Wind Visibility
340° at 12 knots 10,000+ meters
Clouds
  • No significant clouds
Becoming Jan-20 @ 21:00 - Jan-21 @ 09:00
Wind Visibility
Variable at 3 knots 10,000+ meters
Clouds
  • No significant clouds